sensor_id;sensor_type;location;lat;lon;timestamp;temperature;humidity
11963;DHT22;62678;52.130;5.584;2023-11-19T00:00:00;14.50;99.90
11963;DHT22;62678;52.130;5.584;2023-11-19T00:02:31;14.50;99.90
11963;DHT22;62678;52.130;5.584;2023-11-19T00:04:58;14.50;99.90
11963;DHT22;62678;52.130;5.584;2023-11-19T00:07:24;14.40;99.90
11963;DHT22;62678;52.130;5.584;2023-11-19T00:09:51;14.50;99.90
11963;DHT22;62678;52.130;5.584;2023-11-19T00:12:18;14.50;99.90
11963;DHT22;62678;52.130;5.584;2023-11-19T00:14:45;14.50;99.90
11963;DHT22;62678;52.130;5.584;2023-11-19T00:17:12;14.50;99.90
11963;DHT22;62678;52.130;5.584;2023-11-19T00:19:40;14.50;99.90
11963;DHT22;62678;52.130;5.584;2023-11-19T00:22:07;14.50;99.90
11963;DHT22;62678;52.130;5.584;2023-11-19T00:24:33;14.40;99.90
11963;DHT22;62678;52.130;5.584;2023-11-19T00:27:00;14.40;99.90
11963;DHT22;62678;52.130;5.584;2023-11-19T00:29:27;14.40;99.90
11963;DHT22;62678;52.130;5.584;2023-11-19T00:31:54;14.40;99.90
11963;DHT22;62678;52.130;5.584;2023-11-19T00:34:21;14.40;99.90
11963;DHT22;62678;52.130;5.584;2023-11-19T00:36:49;14.40;99.90
11963;DHT22;62678;52.130;5.584;2023-11-19T00:39:16;14.40;99.90
11963;DHT22;62678;52.130;5.584;2023-11-19T00:41:46;14.40;99.90
11963;DHT22;62678;52.130;5.584;2023-11-19T00:44:13;14.40;99.90
11963;DHT22;62678;52.130;5.584;2023-11-19T00:46:39;14.40;99.90
11963;DHT22;62678;52.130;5.584;2023-11-19T00:49:06;14.40;99.90
11963;DHT22;62678;52.130;5.584;2023-11-19T00:51:33;14.40;99.90
11963;DHT22;62678;52.130;5.584;2023-11-19T00:54:01;14.40;99.90
11963;DHT22;62678;52.130;5.584;2023-11-19T00:56:28;14.40;99.90
11963;DHT22;62678;52.130;5.584;2023-11-19T00:58:54;14.40;99.90
11963;DHT22;62678;52.130;5.584;2023-11-19T01:01:22;14.40;99.90
11963;DHT22;62678;52.130;5.584;2023-11-19T01:03:49;14.40;99.90
11963;DHT22;62678;52.130;5.584;2023-11-19T01:06:26;14.40;99.90
11963;DHT22;62678;52.130;5.584;2023-11-19T01:08:53;14.40;99.90
11963;DHT22;62678;52.130;5.584;2023-11-19T01:11:23;14.40;99.90
11963;DHT22;62678;52.130;5.584;2023-11-19T01:13:51;14.40;99.90
11963;DHT22;62678;52.130;5.584;2023-11-19T01:16:18;14.30;99.90
11963;DHT22;62678;52.130;5.584;2023-11-19T01:18:46;14.40;99.90
11963;DHT22;62678;52.130;5.584;2023-11-19T01:21:13;14.30;99.90
11963;DHT22;62678;52.130;5.584;2023-11-19T01:23:41;14.30;99.90
11963;DHT22;62678;52.130;5.584;2023-11-19T01:26:09;14.30;99.90
11963;DHT22;62678;52.130;5.584;2023-11-19T01:28:39;14.30;99.90
11963;DHT22;62678;52.130;5.584;2023-11-19T01:31:10;14.30;99.90
11963;DHT22;62678;52.130;5.584;2023-11-19T01:33:38;14.30;99.90
11963;DHT22;62678;52.130;5.584;2023-11-19T01:36:06;14.40;99.90
11963;DHT22;62678;52.130;5.584;2023-11-19T01:38:33;14.30;99.90
11963;DHT22;62678;52.130;5.584;2023-11-19T01:41:00;14.30;99.90
11963;DHT22;62678;52.130;5.584;2023-11-19T01:43:33;14.30;99.90
11963;DHT22;62678;52.130;5.584;2023-11-19T01:46:01;14.30;99.90
11963;DHT22;62678;52.130;5.584;2023-11-19T01:48:28;14.30;99.90
11963;DHT22;62678;52.130;5.584;2023-11-19T01:50:56;14.30;99.90
11963;DHT22;62678;52.130;5.584;2023-11-19T01:53:23;14.30;99.90
11963;DHT22;62678;52.130;5.584;2023-11-19T01:55:51;14.30;99.90
11963;DHT22;62678;52.130;5.584;2023-11-19T01:58:18;14.30;99.90
11963;DHT22;62678;52.130;5.584;2023-11-19T02:00:46;14.30;99.90
11963;DHT22;62678;52.130;5.584;2023-11-19T02:03:14;14.30;99.90
11963;DHT22;62678;52.130;5.584;2023-11-19T02:05:41;14.20;99.90
11963;DHT22;62678;52.130;5.584;2023-11-19T02:08:09;14.20;99.90
11963;DHT22;62678;52.130;5.584;2023-11-19T02:10:35;14.20;99.90
11963;DHT22;62678;52.130;5.584;2023-11-19T02:13:02;14.20;99.90
11963;DHT22;62678;52.130;5.584;2023-11-19T02:15:31;14.20;99.90
11963;DHT22;62678;52.130;5.584;2023-11-19T02:18:24;14.10;99.90
11963;DHT22;62678;52.130;5.584;2023-11-19T02:20:53;14.00;99.90
11963;DHT22;62678;52.130;5.584;2023-11-19T02:23:21;14.00;99.90
11963;DHT22;62678;52.130;5.584;2023-11-19T02:25:54;14.00;99.90
11963;DHT22;62678;52.130;5.584;2023-11-19T02:28:24;13.90;99.90
11963;DHT22;62678;52.130;5.584;2023-11-19T02:30:51;13.90;99.90
11963;DHT22;62678;52.130;5.584;2023-11-19T02:33:18;13.90;99.90
11963;DHT22;62678;52.130;5.584;2023-11-19T02:35:45;13.90;99.90
11963;DHT22;62678;52.130;5.584;2023-11-19T02:38:12;13.90;99.90
11963;DHT22;62678;52.130;5.584;2023-11-19T02:40:39;13.90;99.90
11963;DHT22;62678;52.130;5.584;2023-11-19T02:43:06;13.80;99.90
11963;DHT22;62678;52.130;5.584;2023-11-19T02:45:35;13.80;99.90
11963;DHT22;62678;52.130;5.584;2023-11-19T02:48:02;13.80;99.90
11963;DHT22;62678;52.130;5.584;2023-11-19T02:50:31;13.80;99.90
11963;DHT22;62678;52.130;5.584;2023-11-19T02:52:58;13.70;99.90
11963;DHT22;62678;52.130;5.584;2023-11-19T02:55:26;13.60;99.90
11963;DHT22;62678;52.130;5.584;2023-11-19T02:57:56;13.60;99.90
11963;DHT22;62678;52.130;5.584;2023-11-19T03:00:24;13.60;99.90
11963;DHT22;62678;52.130;5.584;2023-11-19T03:02:59;13.60;99.90
11963;DHT22;62678;52.130;5.584;2023-11-19T03:05:35;13.50;99.90
11963;DHT22;62678;52.130;5.584;2023-11-19T03:08:02;13.50;99.90
11963;DHT22;62678;52.130;5.584;2023-11-19T03:10:29;13.50;99.90
11963;DHT22;62678;52.130;5.584;2023-11-19T03:12:56;13.50;99.90
11963;DHT22;62678;52.130;5.584;2023-11-19T03:15:22;13.50;99.90
11963;DHT22;62678;52.130;5.584;2023-11-19T03:17:49;13.40;99.90
11963;DHT22;62678;52.130;5.584;2023-11-19T03:20:17;13.30;99.90
11963;DHT22;62678;52.130;5.584;2023-11-19T03:22:44;13.30;99.90
11963;DHT22;62678;52.130;5.584;2023-11-19T03:25:11;13.20;99.90
11963;DHT22;62678;52.130;5.584;2023-11-19T03:27:39;13.20;99.90
11963;DHT22;62678;52.130;5.584;2023-11-19T03:30:08;13.20;99.90
11963;DHT22;62678;52.130;5.584;2023-11-19T03:32:35;13.20;99.90
11963;DHT22;62678;52.130;5.584;2023-11-19T03:35:02;13.20;99.90
11963;DHT22;62678;52.130;5.584;2023-11-19T03:37:31;13.10;99.90
11963;DHT22;62678;52.130;5.584;2023-11-19T03:39:59;13.00;99.90
11963;DHT22;62678;52.130;5.584;2023-11-19T03:42:26;12.90;99.90
11963;DHT22;62678;52.130;5.584;2023-11-19T03:44:53;12.90;99.90
11963;DHT22;62678;52.130;5.584;2023-11-19T03:47:20;12.80;99.90
11963;DHT22;62678;52.130;5.584;2023-11-19T03:49:48;12.70;99.90
11963;DHT22;62678;52.130;5.584;2023-11-19T03:52:15;12.70;99.90
11963;DHT22;62678;52.130;5.584;2023-11-19T03:54:44;12.70;99.90
11963;DHT22;62678;52.130;5.584;2023-11-19T03:57:12;12.60;99.90
11963;DHT22;62678;52.130;5.584;2023-11-19T03:59:39;12.70;99.90
11963;DHT22;62678;52.130;5.584;2023-11-19T04:02:06;12.60;99.90
11963;DHT22;62678;52.130;5.584;2023-11-19T04:04:33;12.60;99.90
11963;DHT22;62678;52.130;5.584;2023-11-19T04:07:00;12.60;99.90
11963;DHT22;62678;52.130;5.584;2023-11-19T04:09:31;12.50;99.90
11963;DHT22;62678;52.130;5.584;2023-11-19T04:12:01;12.50;99.90
11963;DHT22;62678;52.130;5.584;2023-11-19T04:14:27;12.50;99.90
11963;DHT22;62678;52.130;5.584;2023-11-19T04:16:54;12.50;99.90
11963;DHT22;62678;52.130;5.584;2023-11-19T04:19:21;12.50;99.90
11963;DHT22;62678;52.130;5.584;2023-11-19T04:21:48;12.50;99.90
11963;DHT22;62678;52.130;5.584;2023-11-19T04:24:15;12.50;99.90
11963;DHT22;62678;52.130;5.584;2023-11-19T04:26:42;12.50;99.90
11963;DHT22;62678;52.130;5.584;2023-11-19T04:29:12;12.50;99.90
11963;DHT22;62678;52.130;5.584;2023-11-19T04:31:40;12.60;99.90
11963;DHT22;62678;52.130;5.584;2023-11-19T04:34:07;12.60;99.90
11963;DHT22;62678;52.130;5.584;2023-11-19T04:36:34;12.50;99.90
11963;DHT22;62678;52.130;5.584;2023-11-19T04:39:02;12.50;99.90
11963;DHT22;62678;52.130;5.584;2023-11-19T04:41:34;12.60;99.90
11963;DHT22;62678;52.130;5.584;2023-11-19T04:44:00;12.50;99.90
11963;DHT22;62678;52.130;5.584;2023-11-19T04:46:28;12.50;99.90
11963;DHT22;62678;52.130;5.584;2023-11-19T04:48:55;12.40;99.90
11963;DHT22;62678;52.130;5.584;2023-11-19T04:51:22;12.40;99.90
11963;DHT22;62678;52.130;5.584;2023-11-19T04:53:49;12.30;99.90
11963;DHT22;62678;52.130;5.584;2023-11-19T04:56:16;12.20;99.90
11963;DHT22;62678;52.130;5.584;2023-11-19T04:58:45;12.30;99.90
11963;DHT22;62678;52.130;5.584;2023-11-19T05:01:14;12.20;99.90
11963;DHT22;62678;52.130;5.584;2023-11-19T05:03:43;12.20;99.90
11963;DHT22;62678;52.130;5.584;2023-11-19T05:06:10;12.30;99.90
11963;DHT22;62678;52.130;5.584;2023-11-19T05:08:37;12.30;99.90
11963;DHT22;62678;52.130;5.584;2023-11-19T05:11:04;12.30;99.90
11963;DHT22;62678;52.130;5.584;2023-11-19T05:13:32;12.20;99.90
11963;DHT22;62678;52.130;5.584;2023-11-19T05:15:59;12.20;99.90
11963;DHT22;62678;52.130;5.584;2023-11-19T05:18:26;12.10;99.90
11963;DHT22;62678;52.130;5.584;2023-11-19T05:20:54;12.10;99.90
11963;DHT22;62678;52.130;5.584;2023-11-19T05:23:21;12.10;99.90
11963;DHT22;62678;52.130;5.584;2023-11-19T05:25:47;12.10;99.90
11963;DHT22;62678;52.130;5.584;2023-11-19T05:28:14;12.10;99.90
11963;DHT22;62678;52.130;5.584;2023-11-19T05:30:41;12.10;99.90
11963;DHT22;62678;52.130;5.584;2023-11-19T05:33:08;12.10;99.90
11963;DHT22;62678;52.130;5.584;2023-11-19T05:35:35;12.10;99.90
11963;DHT22;62678;52.130;5.584;2023-11-19T05:38:03;12.10;99.90
11963;DHT22;62678;52.130;5.584;2023-11-19T05:40:31;12.00;99.90
11963;DHT22;62678;52.130;5.584;2023-11-19T05:42:58;12.00;99.90
11963;DHT22;62678;52.130;5.584;2023-11-19T05:45:25;12.00;99.90
11963;DHT22;62678;52.130;5.584;2023-11-19T05:47:52;12.00;99.90
11963;DHT22;62678;52.130;5.584;2023-11-19T05:50:19;12.00;99.90
11963;DHT22;62678;52.130;5.584;2023-11-19T05:52:46;11.90;99.90
11963;DHT22;62678;52.130;5.584;2023-11-19T05:55:14;11.90;99.90
11963;DHT22;62678;52.130;5.584;2023-11-19T05:57:41;11.90;99.90
11963;DHT22;62678;52.130;5.584;2023-11-19T06:00:09;11.90;99.90
11963;DHT22;62678;52.130;5.584;2023-11-19T06:02:38;11.90;99.90
11963;DHT22;62678;52.130;5.584;2023-11-19T06:05:05;11.90;99.90
11963;DHT22;62678;52.130;5.584;2023-11-19T06:07:32;11.90;99.90
11963;DHT22;62678;52.130;5.584;2023-11-19T06:10:00;11.90;99.90
11963;DHT22;62678;52.130;5.584;2023-11-19T06:12:29;11.90;99.90
11963;DHT22;62678;52.130;5.584;2023-11-19T06:14:59;12.00;99.90
11963;DHT22;62678;52.130;5.584;2023-11-19T06:17:27;12.00;99.90
11963;DHT22;62678;52.130;5.584;2023-11-19T06:19:54;11.90;99.90
11963;DHT22;62678;52.130;5.584;2023-11-19T06:22:21;11.90;99.90
11963;DHT22;62678;52.130;5.584;2023-11-19T06:24:47;11.90;99.90
11963;DHT22;62678;52.130;5.584;2023-11-19T06:27:14;11.80;99.90
11963;DHT22;62678;52.130;5.584;2023-11-19T06:29:42;11.80;99.90
11963;DHT22;62678;52.130;5.584;2023-11-19T06:32:09;11.90;99.90
11963;DHT22;62678;52.130;5.584;2023-11-19T06:34:37;11.80;99.90
11963;DHT22;62678;52.130;5.584;2023-11-19T06:37:04;11.80;99.90
11963;DHT22;62678;52.130;5.584;2023-11-19T06:39:31;11.80;99.90
11963;DHT22;62678;52.130;5.584;2023-11-19T06:41:58;11.80;99.90
11963;DHT22;62678;52.130;5.584;2023-11-19T06:44:25;11.80;99.90
11963;DHT22;62678;52.130;5.584;2023-11-19T06:46:54;11.70;99.90
11963;DHT22;62678;52.130;5.584;2023-11-19T06:49:22;11.70;99.90
11963;DHT22;62678;52.130;5.584;2023-11-19T06:51:49;11.80;99.90
11963;DHT22;62678;52.130;5.584;2023-11-19T06:54:16;11.80;99.90
11963;DHT22;62678;52.130;5.584;2023-11-19T06:56:42;11.70;99.90
11963;DHT22;62678;52.130;5.584;2023-11-19T06:59:09;11.70;99.90
11963;DHT22;62678;52.130;5.584;2023-11-19T07:01:36;11.80;99.90
11963;DHT22;62678;52.130;5.584;2023-11-19T07:04:05;11.70;99.90
11963;DHT22;62678;52.130;5.584;2023-11-19T07:06:34;11.80;99.90
11963;DHT22;62678;52.130;5.584;2023-11-19T07:09:02;11.80;99.90
11963;DHT22;62678;52.130;5.584;2023-11-19T07:11:35;11.80;99.90
11963;DHT22;62678;52.130;5.584;2023-11-19T07:14:02;11.80;99.90
11963;DHT22;62678;52.130;5.584;2023-11-19T07:16:29;11.80;99.90
11963;DHT22;62678;52.130;5.584;2023-11-19T07:18:56;11.90;99.90
11963;DHT22;62678;52.130;5.584;2023-11-19T07:21:25;11.90;99.90
11963;DHT22;62678;52.130;5.584;2023-11-19T07:23:53;12.00;99.90
11963;DHT22;62678;52.130;5.584;2023-11-19T07:26:20;11.90;99.90
11963;DHT22;62678;52.130;5.584;2023-11-19T07:28:47;12.00;99.90
11963;DHT22;62678;52.130;5.584;2023-11-19T07:31:14;12.00;99.90
11963;DHT22;62678;52.130;5.584;2023-11-19T07:33:41;12.00;99.90
11963;DHT22;62678;52.130;5.584;2023-11-19T07:36:09;12.00;99.90
11963;DHT22;62678;52.130;5.584;2023-11-19T07:38:38;11.90;99.90
11963;DHT22;62678;52.130;5.584;2023-11-19T07:41:05;12.00;99.90
11963;DHT22;62678;52.130;5.584;2023-11-19T07:43:34;12.00;99.90
11963;DHT22;62678;52.130;5.584;2023-11-19T07:46:01;12.00;99.90
11963;DHT22;62678;52.130;5.584;2023-11-19T07:48:29;12.00;99.90
11963;DHT22;62678;52.130;5.584;2023-11-19T07:50:56;12.00;99.90
11963;DHT22;62678;52.130;5.584;2023-11-19T07:53:23;11.90;99.90
11963;DHT22;62678;52.130;5.584;2023-11-19T07:55:51;11.90;99.90
11963;DHT22;62678;52.130;5.584;2023-11-19T07:58:18;11.90;99.90
11963;DHT22;62678;52.130;5.584;2023-11-19T08:00:45;12.00;99.90
11963;DHT22;62678;52.130;5.584;2023-11-19T08:03:12;12.00;99.90
11963;DHT22;62678;52.130;5.584;2023-11-19T08:05:38;12.00;99.90
11963;DHT22;62678;52.130;5.584;2023-11-19T08:08:06;12.10;99.90
11963;DHT22;62678;52.130;5.584;2023-11-19T08:10:32;12.10;99.90
11963;DHT22;62678;52.130;5.584;2023-11-19T08:13:01;12.10;99.90
11963;DHT22;62678;52.130;5.584;2023-11-19T08:15:28;12.00;99.90
11963;DHT22;62678;52.130;5.584;2023-11-19T08:17:54;12.10;99.90
11963;DHT22;62678;52.130;5.584;2023-11-19T08:20:21;12.10;99.90
11963;DHT22;62678;52.130;5.584;2023-11-19T08:22:49;12.10;99.90
11963;DHT22;62678;52.130;5.584;2023-11-19T08:25:15;12.10;99.90
11963;DHT22;62678;52.130;5.584;2023-11-19T08:27:42;12.20;99.90
11963;DHT22;62678;52.130;5.584;2023-11-19T08:30:11;12.20;99.90
11963;DHT22;62678;52.130;5.584;2023-11-19T08:32:38;12.20;99.90
11963;DHT22;62678;52.130;5.584;2023-11-19T08:35:06;12.20;99.90
11963;DHT22;62678;52.130;5.584;2023-11-19T08:37:34;12.20;99.90
11963;DHT22;62678;52.130;5.584;2023-11-19T08:40:02;12.20;99.90
11963;DHT22;62678;52.130;5.584;2023-11-19T08:42:30;12.20;99.90
11963;DHT22;62678;52.130;5.584;2023-11-19T08:44:56;12.30;99.90
11963;DHT22;62678;52.130;5.584;2023-11-19T08:47:25;12.30;99.90
11963;DHT22;62678;52.130;5.584;2023-11-19T08:49:52;12.30;99.90
11963;DHT22;62678;52.130;5.584;2023-11-19T08:52:20;12.30;99.90
11963;DHT22;62678;52.130;5.584;2023-11-19T08:54:47;12.30;99.90
11963;DHT22;62678;52.130;5.584;2023-11-19T08:57:14;12.30;99.90
11963;DHT22;62678;52.130;5.584;2023-11-19T08:59:40;12.40;99.90
11963;DHT22;62678;52.130;5.584;2023-11-19T09:02:07;12.50;99.90
11963;DHT22;62678;52.130;5.584;2023-11-19T09:04:36;12.50;99.90
11963;DHT22;62678;52.130;5.584;2023-11-19T09:07:03;12.50;99.90
11963;DHT22;62678;52.130;5.584;2023-11-19T09:09:30;12.60;99.90
11963;DHT22;62678;52.130;5.584;2023-11-19T09:11:57;12.70;99.90
11963;DHT22;62678;52.130;5.584;2023-11-19T09:14:23;12.80;99.90
11963;DHT22;62678;52.130;5.584;2023-11-19T09:16:51;12.90;99.90
11963;DHT22;62678;52.130;5.584;2023-11-19T09:19:18;12.80;99.90
11963;DHT22;62678;52.130;5.584;2023-11-19T09:21:46;12.90;99.90
11963;DHT22;62678;52.130;5.584;2023-11-19T09:24:15;12.90;99.90
11963;DHT22;62678;52.130;5.584;2023-11-19T09:26:41;12.90;99.90
11963;DHT22;62678;52.130;5.584;2023-11-19T09:29:09;12.90;99.90
11963;DHT22;62678;52.130;5.584;2023-11-19T09:31:37;12.90;99.90
11963;DHT22;62678;52.130;5.584;2023-11-19T09:34:04;13.00;99.90
11963;DHT22;62678;52.130;5.584;2023-11-19T09:36:32;13.00;99.90
11963;DHT22;62678;52.130;5.584;2023-11-19T09:39:00;13.00;99.90
11963;DHT22;62678;52.130;5.584;2023-11-19T09:41:27;13.00;99.90
11963;DHT22;62678;52.130;5.584;2023-11-19T09:43:54;13.00;99.90
11963;DHT22;62678;52.130;5.584;2023-11-19T09:46:22;12.90;99.90
11963;DHT22;62678;52.130;5.584;2023-11-19T09:48:51;13.00;99.90
11963;DHT22;62678;52.130;5.584;2023-11-19T09:51:20;13.00;99.90
11963;DHT22;62678;52.130;5.584;2023-11-19T09:53:47;12.90;99.90
11963;DHT22;62678;52.130;5.584;2023-11-19T09:56:15;13.00;99.90
11963;DHT22;62678;52.130;5.584;2023-11-19T09:58:42;13.10;99.90
11963;DHT22;62678;52.130;5.584;2023-11-19T10:01:09;13.00;99.90
11963;DHT22;62678;52.130;5.584;2023-11-19T10:03:38;13.10;99.90
11963;DHT22;62678;52.130;5.584;2023-11-19T10:06:07;13.10;99.90
11963;DHT22;62678;52.130;5.584;2023-11-19T10:08:34;13.10;99.90
11963;DHT22;62678;52.130;5.584;2023-11-19T10:11:03;13.20;99.90
11963;DHT22;62678;52.130;5.584;2023-11-19T10:13:32;13.20;99.90
11963;DHT22;62678;52.130;5.584;2023-11-19T10:16:04;13.30;99.90
11963;DHT22;62678;52.130;5.584;2023-11-19T10:18:31;13.30;99.90
11963;DHT22;62678;52.130;5.584;2023-11-19T10:21:03;13.30;99.90
11963;DHT22;62678;52.130;5.584;2023-11-19T10:23:31;13.30;99.90
11963;DHT22;62678;52.130;5.584;2023-11-19T10:26:03;13.40;99.90
11963;DHT22;62678;52.130;5.584;2023-11-19T10:28:39;13.50;99.90
11963;DHT22;62678;52.130;5.584;2023-11-19T10:31:08;13.60;99.90
11963;DHT22;62678;52.130;5.584;2023-11-19T10:33:35;13.60;99.90
11963;DHT22;62678;52.130;5.584;2023-11-19T10:36:02;13.80;99.90
11963;DHT22;62678;52.130;5.584;2023-11-19T10:38:29;13.70;99.90
11963;DHT22;62678;52.130;5.584;2023-11-19T10:40:56;13.70;99.90
11963;DHT22;62678;52.130;5.584;2023-11-19T10:43:24;13.80;99.90
11963;DHT22;62678;52.130;5.584;2023-11-19T10:45:53;13.90;99.90
11963;DHT22;62678;52.130;5.584;2023-11-19T10:48:19;13.90;99.90
11963;DHT22;62678;52.130;5.584;2023-11-19T10:50:52;13.90;99.90
11963;DHT22;62678;52.130;5.584;2023-11-19T10:53:21;14.00;99.90
11963;DHT22;62678;52.130;5.584;2023-11-19T10:55:51;14.10;99.90
11963;DHT22;62678;52.130;5.584;2023-11-19T10:58:20;14.00;99.90
11963;DHT22;62678;52.130;5.584;2023-11-19T11:00:51;14.10;99.90
11963;DHT22;62678;52.130;5.584;2023-11-19T11:03:21;13.90;99.90
11963;DHT22;62678;52.130;5.584;2023-11-19T11:05:50;14.10;99.90
11963;DHT22;62678;52.130;5.584;2023-11-19T11:08:19;14.20;99.90
11963;DHT22;62678;52.130;5.584;2023-11-19T11:10:51;14.30;99.90
11963;DHT22;62678;52.130;5.584;2023-11-19T11:13:19;14.20;99.90
11963;DHT22;62678;52.130;5.584;2023-11-19T11:15:46;14.10;99.90
11963;DHT22;62678;52.130;5.584;2023-11-19T11:18:13;14.20;99.90
11963;DHT22;62678;52.130;5.584;2023-11-19T11:20:44;14.20;99.90
11963;DHT22;62678;52.130;5.584;2023-11-19T11:23:28;14.10;99.90
11963;DHT22;62678;52.130;5.584;2023-11-19T11:26:11;14.10;99.90
11963;DHT22;62678;52.130;5.584;2023-11-19T11:28:46;14.10;99.90
11963;DHT22;62678;52.130;5.584;2023-11-19T11:31:24;14.10;99.90
11963;DHT22;62678;52.130;5.584;2023-11-19T11:34:11;14.10;99.90
11963;DHT22;62678;52.130;5.584;2023-11-19T11:36:49;14.10;99.90
11963;DHT22;62678;52.130;5.584;2023-11-19T11:39:22;14.00;99.90
11963;DHT22;62678;52.130;5.584;2023-11-19T11:42:35;14.00;99.90
11963;DHT22;62678;52.130;5.584;2023-11-19T11:45:04;14.10;99.90
11963;DHT22;62678;52.130;5.584;2023-11-19T11:48:05;14.10;99.90
11963;DHT22;62678;52.130;5.584;2023-11-19T11:50:35;14.10;99.90
11963;DHT22;62678;52.130;5.584;2023-11-19T11:53:21;14.20;99.90
11963;DHT22;62678;52.130;5.584;2023-11-19T11:55:57;14.10;99.90
11963;DHT22;62678;52.130;5.584;2023-11-19T11:58:32;14.00;99.90
11963;DHT22;62678;52.130;5.584;2023-11-19T12:01:04;14.00;99.90
11963;DHT22;62678;52.130;5.584;2023-11-19T12:03:32;14.00;99.90
11963;DHT22;62678;52.130;5.584;2023-11-19T12:05:59;14.00;99.90
11963;DHT22;62678;52.130;5.584;2023-11-19T12:08:29;14.10;99.90
11963;DHT22;62678;52.130;5.584;2023-11-19T12:10:58;14.10;99.90
11963;DHT22;62678;52.130;5.584;2023-11-19T12:13:42;14.10;99.90
11963;DHT22;62678;52.130;5.584;2023-11-19T12:16:11;14.20;99.90
11963;DHT22;62678;52.130;5.584;2023-11-19T12:18:41;14.00;99.90
11963;DHT22;62678;52.130;5.584;2023-11-19T12:21:08;14.00;99.90
11963;DHT22;62678;52.130;5.584;2023-11-19T12:23:46;14.00;99.90
11963;DHT22;62678;52.130;5.584;2023-11-19T12:26:35;14.00;99.90
11963;DHT22;62678;52.130;5.584;2023-11-19T12:29:02;14.00;99.90
11963;DHT22;62678;52.130;5.584;2023-11-19T12:31:32;14.20;99.90
11963;DHT22;62678;52.130;5.584;2023-11-19T12:34:05;14.30;99.90
11963;DHT22;62678;52.130;5.584;2023-11-19T12:36:32;14.20;99.90
11963;DHT22;62678;52.130;5.584;2023-11-19T12:39:01;14.10;99.90
11963;DHT22;62678;52.130;5.584;2023-11-19T12:41:27;14.00;99.90
11963;DHT22;62678;52.130;5.584;2023-11-19T12:44:03;14.00;99.90
11963;DHT22;62678;52.130;5.584;2023-11-19T12:46:35;13.90;99.90
11963;DHT22;62678;52.130;5.584;2023-11-19T12:49:01;13.80;99.90
11963;DHT22;62678;52.130;5.584;2023-11-19T12:51:31;13.90;99.90
11963;DHT22;62678;52.130;5.584;2023-11-19T12:53:57;13.80;99.90
11963;DHT22;62678;52.130;5.584;2023-11-19T12:56:26;13.70;99.90
11963;DHT22;62678;52.130;5.584;2023-11-19T12:58:52;13.80;99.90
11963;DHT22;62678;52.130;5.584;2023-11-19T13:01:20;13.80;99.90
11963;DHT22;62678;52.130;5.584;2023-11-19T13:03:48;13.80;99.90
11963;DHT22;62678;52.130;5.584;2023-11-19T13:06:16;13.90;99.90
11963;DHT22;62678;52.130;5.584;2023-11-19T13:08:47;13.90;99.90
11963;DHT22;62678;52.130;5.584;2023-11-19T13:11:32;14.00;99.90
11963;DHT22;62678;52.130;5.584;2023-11-19T13:14:02;14.00;99.90
11963;DHT22;62678;52.130;5.584;2023-11-19T13:16:30;14.00;99.90
11963;DHT22;62678;52.130;5.584;2023-11-19T13:18:57;14.00;99.90
11963;DHT22;62678;52.130;5.584;2023-11-19T13:21:25;14.00;99.90
11963;DHT22;62678;52.130;5.584;2023-11-19T13:23:52;13.90;99.90
11963;DHT22;62678;52.130;5.584;2023-11-19T13:26:19;13.80;99.90
11963;DHT22;62678;52.130;5.584;2023-11-19T13:28:47;13.70;99.90
11963;DHT22;62678;52.130;5.584;2023-11-19T13:31:14;13.60;99.90
11963;DHT22;62678;52.130;5.584;2023-11-19T13:33:41;13.50;99.90
11963;DHT22;62678;52.130;5.584;2023-11-19T13:36:09;13.50;99.90
11963;DHT22;62678;52.130;5.584;2023-11-19T13:38:36;13.40;99.90
11963;DHT22;62678;52.130;5.584;2023-11-19T13:41:04;13.30;99.90
11963;DHT22;62678;52.130;5.584;2023-11-19T13:43:31;13.30;99.90
11963;DHT22;62678;52.130;5.584;2023-11-19T13:45:59;13.30;99.90
11963;DHT22;62678;52.130;5.584;2023-11-19T13:48:26;13.20;99.90
11963;DHT22;62678;52.130;5.584;2023-11-19T13:50:54;13.30;99.90
11963;DHT22;62678;52.130;5.584;2023-11-19T13:53:21;13.30;99.90
11963;DHT22;62678;52.130;5.584;2023-11-19T13:55:48;13.40;99.90
11963;DHT22;62678;52.130;5.584;2023-11-19T13:58:15;13.40;99.90
11963;DHT22;62678;52.130;5.584;2023-11-19T14:00:42;13.40;99.90
11963;DHT22;62678;52.130;5.584;2023-11-19T14:03:10;13.40;99.90
11963;DHT22;62678;52.130;5.584;2023-11-19T14:05:37;13.30;99.90
11963;DHT22;62678;52.130;5.584;2023-11-19T14:08:04;13.30;99.90
11963;DHT22;62678;52.130;5.584;2023-11-19T14:10:37;13.20;99.90
11963;DHT22;62678;52.130;5.584;2023-11-19T14:13:05;13.20;99.90
11963;DHT22;62678;52.130;5.584;2023-11-19T14:15:32;13.30;99.90
11963;DHT22;62678;52.130;5.584;2023-11-19T14:17:59;13.20;99.90
11963;DHT22;62678;52.130;5.584;2023-11-19T14:20:27;13.20;99.90
11963;DHT22;62678;52.130;5.584;2023-11-19T14:22:54;13.40;99.90
11963;DHT22;62678;52.130;5.584;2023-11-19T14:25:21;13.40;99.90
11963;DHT22;62678;52.130;5.584;2023-11-19T14:27:49;13.30;99.90
11963;DHT22;62678;52.130;5.584;2023-11-19T14:30:16;13.30;99.90
11963;DHT22;62678;52.130;5.584;2023-11-19T14:32:43;13.20;99.90
11963;DHT22;62678;52.130;5.584;2023-11-19T14:35:11;13.20;99.90
11963;DHT22;62678;52.130;5.584;2023-11-19T14:37:39;13.20;99.90
11963;DHT22;62678;52.130;5.584;2023-11-19T14:40:07;13.10;99.90
11963;DHT22;62678;52.130;5.584;2023-11-19T14:42:37;13.00;99.90
11963;DHT22;62678;52.130;5.584;2023-11-19T14:45:07;13.00;99.90
11963;DHT22;62678;52.130;5.584;2023-11-19T14:47:37;13.00;99.90
11963;DHT22;62678;52.130;5.584;2023-11-19T14:50:05;13.00;99.90
11963;DHT22;62678;52.130;5.584;2023-11-19T14:52:32;13.00;99.90
11963;DHT22;62678;52.130;5.584;2023-11-19T14:55:00;13.10;99.90
11963;DHT22;62678;52.130;5.584;2023-11-19T14:57:28;13.00;99.90
11963;DHT22;62678;52.130;5.584;2023-11-19T14:59:54;13.00;99.90
11963;DHT22;62678;52.130;5.584;2023-11-19T15:02:21;13.10;99.90
11963;DHT22;62678;52.130;5.584;2023-11-19T15:04:48;13.10;99.90
11963;DHT22;62678;52.130;5.584;2023-11-19T15:07:15;13.10;99.90
11963;DHT22;62678;52.130;5.584;2023-11-19T15:09:42;13.10;99.90
11963;DHT22;62678;52.130;5.584;2023-11-19T15:12:10;13.10;99.90
11963;DHT22;62678;52.130;5.584;2023-11-19T15:14:37;13.00;99.90
11963;DHT22;62678;52.130;5.584;2023-11-19T15:17:03;13.00;99.90
11963;DHT22;62678;52.130;5.584;2023-11-19T15:19:32;13.00;99.90
11963;DHT22;62678;52.130;5.584;2023-11-19T15:21:59;13.00;99.90
11963;DHT22;62678;52.130;5.584;2023-11-19T15:24:29;13.00;99.90
11963;DHT22;62678;52.130;5.584;2023-11-19T15:26:56;13.00;99.90
11963;DHT22;62678;52.130;5.584;2023-11-19T15:29:24;13.00;99.90
11963;DHT22;62678;52.130;5.584;2023-11-19T15:31:51;13.00;99.90
11963;DHT22;62678;52.130;5.584;2023-11-19T15:34:18;13.00;99.90
11963;DHT22;62678;52.130;5.584;2023-11-19T15:36:46;13.10;99.90